Time;durP1;ratioP1;P1;durP2;ratioP2;P2;SDS_P1;SDS_P2;PMS_P1;PMS_P2;Temp;Humidity;BMP_temperature;BMP_pressure;BME280_temperature;BME280_humidity;BME280_pressure;Samples;Min_cycle;Max_cycle;Signal;HPM_P1;HPM_P2
2021/03/06 00:02:18;;;;;;;6.73;5.33;;;1.90;99.90;;;;;;5013655;28;20542;-64
2021/03/06 00:04:44;;;;;;;5.97;4.97;;;1.90;99.90;;;;;;5013488;28;20201;-64
2021/03/06 00:07:10;;;;;;;5.53;4.70;;;1.90;99.90;;;;;;5013826;28;20261;-64
2021/03/06 00:09:36;;;;;;;5.60;5.07;;;1.80;99.90;;;;;;4996497;28;20806;-64
2021/03/06 00:12:03;;;;;;;5.83;5.00;;;1.80;99.90;;;;;;5013656;28;20217;-64
2021/03/06 00:14:33;;;;;;;6.27;5.30;;;1.80;99.90;;;;;;5015206;28;20930;-64
2021/03/06 00:16:59;;;;;;;5.53;5.00;;;1.90;99.90;;;;;;5033253;28;20897;-63
2021/03/06 00:19:26;;;;;;;6.63;5.10;;;1.90;99.90;;;;;;5037585;28;20396;-64
2021/03/06 00:21:52;;;;;;;5.13;4.63;;;1.90;99.90;;;;;;5037836;28;20442;-64
2021/03/06 00:24:17;;;;;;;5.10;4.60;;;1.90;99.90;;;;;;5037636;28;20946;-63
2021/03/06 00:26:43;;;;;;;6.57;4.90;;;1.90;99.90;;;;;;5037159;28;20194;-64
2021/03/06 00:29:08;;;;;;;8.30;6.60;;;1.90;99.90;;;;;;5037970;28;20225;-63
2021/03/06 00:31:38;;;;;;;5.27;4.77;;;1.80;99.90;;;;;;5037637;28;20174;-64
2021/03/06 00:34:05;;;;;;;6.80;5.20;;;1.80;99.90;;;;;;5036993;28;20530;-64
2021/03/06 00:36:31;;;;;;;6.73;6.07;;;1.80;99.90;;;;;;5037327;28;20423;-64
2021/03/06 00:38:57;;;;;;;7.23;5.47;;;1.70;99.90;;;;;;5037439;28;20408;-63
2021/03/06 00:41:23;;;;;;;9.70;5.90;;;1.60;99.90;;;;;;5037243;28;20812;-63
2021/03/06 00:43:49;;;;;;;6.80;5.40;;;1.60;99.90;;;;;;5036801;28;20416;-64
2021/03/06 00:46:14;;;;;;;6.53;5.67;;;1.60;99.90;;;;;;5036059;28;20212;-64
2021/03/06 00:48:40;;;;;;;7.30;5.70;;;1.60;99.90;;;;;;5049374;23;20608;-64
2021/03/06 00:51:06;;;;;;;6.00;5.37;;;1.60;99.90;;;;;;5055755;28;20580;-63
2021/03/06 00:53:36;;;;;;;6.40;5.40;;;1.60;99.90;;;;;;5055902;28;20169;-63
2021/03/06 00:56:01;;;;;;;6.90;5.80;;;1.70;99.90;;;;;;5056805;28;20404;-63
2021/03/06 00:58:27;;;;;;;5.70;5.10;;;1.70;99.90;;;;;;5056471;28;20945;-62
2021/03/06 01:00:53;;;;;;;4.93;4.43;;;1.70;99.90;;;;;;5056197;28;20175;-63
2021/03/06 01:03:18;;;;;;;5.87;5.23;;;1.60;99.90;;;;;;5055945;28;20176;-63
2021/03/06 01:05:44;;;;;;;6.10;5.57;;;1.70;99.90;;;;;;5055821;28;20247;-63
2021/03/06 01:08:10;;;;;;;6.93;5.93;;;1.60;99.90;;;;;;5056041;28;20203;-62
2021/03/06 01:10:39;;;;;;;6.50;5.87;;;1.60;99.90;;;;;;5056129;28;20176;-62
2021/03/06 01:13:05;;;;;;;5.73;5.10;;;1.50;99.90;;;;;;5055870;28;20188;-63
2021/03/06 01:15:32;;;;;;;7.57;5.80;;;1.50;99.90;;;;;;5056488;28;20415;-63
2021/03/06 01:17:57;;;;;;;5.90;5.30;;;1.50;99.90;;;;;;5055439;28;20406;-62
2021/03/06 01:20:23;;;;;;;6.40;5.80;;;1.50;99.90;;;;;;5055639;28;20521;-63
2021/03/06 01:22:49;;;;;;;7.23;6.13;;;1.50;99.90;;;;;;5055770;28;20213;-63
2021/03/06 01:25:15;;;;;;;5.47;4.97;;;1.40;99.90;;;;;;5055750;28;20816;-63
2021/03/06 01:27:40;;;;;;;6.33;5.47;;;1.50;99.90;;;;;;5055559;28;20191;-63
2021/03/06 01:30:09;;;;;;;6.47;5.87;;;1.40;99.90;;;;;;5054854;28;20782;-64
2021/03/06 01:32:34;;;;;;;5.40;4.80;;;1.40;99.90;;;;;;5055518;28;20177;-63
2021/03/06 01:35:00;;;;;;;6.63;4.70;;;1.40;99.90;;;;;;5055101;28;20808;-63
2021/03/06 01:37:26;;;;;;;7.60;6.47;;;1.30;99.90;;;;;;5055586;28;20177;-63
2021/03/06 01:39:51;;;;;;;5.77;5.27;;;1.30;99.90;;;;;;5055448;28;20195;-63
2021/03/06 01:42:19;;;;;;;5.60;5.03;;;1.40;99.90;;;;;;5055680;28;20181;-63
2021/03/06 01:44:45;;;;;;;4.97;4.40;;;1.30;99.90;;;;;;5055410;28;20176;-63
2021/03/06 01:47:11;;;;;;;5.70;5.20;;;1.30;99.90;;;;;;5055299;28;20454;-63
2021/03/06 01:49:36;;;;;;;6.97;6.00;;;1.30;99.90;;;;;;5054684;28;20215;-63
2021/03/06 01:52:04;;;;;;;7.00;6.30;;;1.30;99.90;;;;;;5055188;28;20411;-62
2021/03/06 01:54:29;;;;;;;6.97;5.50;;;1.30;99.90;;;;;;5055212;28;20163;-63
2021/03/06 01:56:56;;;;;;;6.93;5.80;;;1.30;99.90;;;;;;5037214;28;20439;-63
2021/03/06 01:59:22;;;;;;;6.33;5.83;;;1.30;99.90;;;;;;5055242;28;20508;-63
2021/03/06 02:01:48;;;;;;;6.33;5.77;;;1.30;99.90;;;;;;5055033;28;20460;-63
2021/03/06 02:04:13;;;;;;;7.07;6.40;;;1.20;99.90;;;;;;5054774;28;20484;-63
2021/03/06 02:06:39;;;;;;;6.63;6.03;;;1.20;99.90;;;;;;5057156;28;20270;-63
2021/03/06 02:09:05;;;;;;;6.60;5.90;;;1.10;99.90;;;;;;5054824;28;20189;-63
2021/03/06 02:11:39;;;;;;;7.37;6.60;;;1.10;99.90;;;;;;5055201;28;20809;-63
2021/03/06 02:14:24;;;;;;;6.77;5.60;;;1.10;99.90;;;;;;5055171;28;20384;-63
2021/03/06 02:16:59;;;;;;;5.97;5.20;;;1.10;99.90;;;;;;5055148;28;20457;-63
2021/03/06 02:19:30;;;;;;;8.30;6.17;;;1.10;99.90;;;;;;5054276;28;20432;-64
2021/03/06 02:22:16;;;;;;;7.67;6.97;;;1.10;99.90;;;;;;5054966;28;20387;-64
2021/03/06 02:25:18;;;;;;;6.53;5.93;;;1.10;99.90;;;;;;5049056;28;20430;-64
2021/03/06 02:28:08;;;;;;;6.30;5.70;;;1.10;99.90;;;;;;5054540;28;20448;-64
2021/03/06 02:30:35;;;;;;;5.90;5.30;;;0.90;99.90;;;;;;5054993;28;20503;-64
2021/03/06 02:33:02;;;;;;;6.63;6.03;;;0.80;99.90;;;;;;5054628;28;20398;-64
2021/03/06 02:35:34;;;;;;;7.20;6.60;;;0.90;99.90;;;;;;5054401;28;20402;-64
2021/03/06 02:38:11;;;;;;;7.43;5.97;;;0.90;99.90;;;;;;5054680;28;20512;-64
2021/03/06 02:40:38;;;;;;;6.47;5.87;;;0.90;99.90;;;;;;5054565;28;20434;-63
2021/03/06 02:43:08;;;;;;;6.20;5.60;;;0.90;99.90;;;;;;5054891;28;20459;-63
2021/03/06 02:45:35;;;;;;;6.37;5.40;;;0.90;99.90;;;;;;5036801;28;20934;-63
2021/03/06 02:48:01;;;;;;;6.77;6.07;;;0.90;99.90;;;;;;5054239;28;20449;-64
2021/03/06 02:50:27;;;;;;;7.23;6.50;;;0.90;99.90;;;;;;5053949;28;20402;-63
2021/03/06 02:52:53;;;;;;;6.60;5.87;;;0.90;99.90;;;;;;5054124;28;20402;-63
2021/03/06 02:55:18;;;;;;;6.50;5.90;;;0.70;99.90;;;;;;5054112;28;20172;-63
2021/03/06 02:58:08;;;;;;;6.40;5.80;;;0.80;99.90;;;;;;5054003;28;20176;-63
2021/03/06 03:00:42;;;;;;;6.70;6.00;;;0.70;99.90;;;;;;5054837;28;20684;-63
2021/03/06 03:03:14;;;;;;;6.37;5.70;;;0.60;99.90;;;;;;5053912;28;20746;-64
2021/03/06 03:05:53;;;;;;;7.20;6.50;;;0.60;99.90;;;;;;5053556;28;20811;-63
2021/03/06 03:08:39;;;;;;;7.10;6.17;;;0.60;99.90;;;;;;5053905;28;20421;-63
2021/03/06 03:11:09;;;;;;;7.37;6.37;;;0.60;99.90;;;;;;5053690;28;20403;-63
2021/03/06 03:13:47;;;;;;;8.20;7.40;;;0.60;99.90;;;;;;5053679;28;20405;-64
2021/03/06 03:16:27;;;;;;;6.67;6.07;;;0.50;99.90;;;;;;5053669;28;20396;-63
2021/03/06 03:19:24;;;;;;;8.13;7.30;;;0.60;99.90;;;;;;5053359;28;20532;-63
2021/03/06 03:21:53;;;;;;;7.43;6.73;;;0.60;99.90;;;;;;5050943;28;20417;-63
2021/03/06 03:24:21;;;;;;;9.10;6.20;;;0.50;99.90;;;;;;5053529;28;20493;-63
2021/03/06 03:26:49;;;;;;;9.53;7.03;;;0.40;99.90;;;;;;5053430;28;20440;-63
2021/03/06 03:29:16;;;;;;;8.03;7.33;;;0.40;99.90;;;;;;5053650;28;20844;-63
2021/03/06 03:31:50;;;;;;;6.90;6.30;;;0.40;99.90;;;;;;5053624;28;20466;-63
2021/03/06 03:34:20;;;;;;;8.53;7.60;;;0.40;99.90;;;;;;5053295;28;20580;-63
2021/03/06 03:36:48;;;;;;;7.07;6.43;;;0.40;99.90;;;;;;5053347;28;20402;-64
2021/03/06 03:39:14;;;;;;;8.07;6.73;;;0.40;99.90;;;;;;5053161;28;20421;-63
2021/03/06 03:41:40;;;;;;;7.77;7.07;;;0.40;99.90;;;;;;5053386;28;20406;-63
2021/03/06 03:44:07;;;;;;;7.70;7.00;;;0.40;99.90;;;;;;5053810;28;20456;-63
2021/03/06 03:46:34;;;;;;;7.47;6.67;;;0.40;99.90;;;;;;5053032;28;20217;-63
2021/03/06 03:49:04;;;;;;;9.80;8.07;;;0.40;99.90;;;;;;5052741;28;20589;-64
2021/03/06 03:51:32;;;;;;;7.70;6.50;;;0.30;99.90;;;;;;5052908;28;20410;-63
2021/03/06 03:53:58;;;;;;;7.90;7.10;;;0.20;99.90;;;;;;5052977;28;20437;-63
2021/03/06 03:56:25;;;;;;;6.67;6.07;;;0.10;99.90;;;;;;5053560;28;20738;-63
2021/03/06 03:58:51;;;;;;;7.60;6.77;;;0.20;99.90;;;;;;5052983;28;20430;-63
2021/03/06 04:01:16;;;;;;;7.23;6.53;;;0.20;99.90;;;;;;5053253;28;20404;-63
2021/03/06 04:03:42;;;;;;;7.40;6.80;;;0.20;99.90;;;;;;5052958;28;20225;-63
2021/03/06 04:06:08;;;;;;;6.87;6.27;;;0.20;99.90;;;;;;5055203;28;20187;-63
2021/03/06 04:08:34;;;;;;;7.27;6.60;;;0.20;99.90;;;;;;5053023;28;20178;-63
2021/03/06 04:11:00;;;;;;;6.60;6.00;;;0.20;99.90;;;;;;5052983;28;20541;-63
2021/03/06 04:13:26;;;;;;;7.63;6.90;;;0.20;99.90;;;;;;5052864;28;20898;-63
2021/03/06 04:15:51;;;;;;;7.13;6.27;;;0.10;99.90;;;;;;5053387;28;20455;-63
2021/03/06 04:18:17;;;;;;;6.47;5.77;;;0.20;99.90;;;;;;5052960;28;20667;-64
2021/03/06 04:20:42;;;;;;;6.47;5.87;;;0.10;99.90;;;;;;5052544;28;20167;-64
2021/03/06 04:23:08;;;;;;;7.13;6.27;;;0.20;99.90;;;;;;5052826;28;20489;-63
2021/03/06 04:25:33;;;;;;;6.00;5.50;;;0.10;99.90;;;;;;5052818;28;20190;-63
2021/03/06 04:27:59;;;;;;;6.00;5.50;;;-0.10;99.90;;;;;;5052674;28;20201;-63
2021/03/06 04:30:25;;;;;;;6.87;6.27;;;-0.10;99.90;;;;;;5053647;28;20239;-63
2021/03/06 04:32:51;;;;;;;7.93;5.90;;;-0.10;99.90;;;;;;5053244;28;20649;-63
2021/03/06 04:35:16;;;;;;;5.90;5.37;;;-0.10;99.90;;;;;;5052564;28;20433;-63
2021/03/06 04:37:42;;;;;;;6.70;6.07;;;-0.20;99.90;;;;;;5052764;28;20168;-63
2021/03/06 04:40:10;;;;;;;6.43;5.83;;;-0.20;99.90;;;;;;5052688;28;20636;-63
2021/03/06 04:42:36;;;;;;;6.73;6.13;;;-0.10;99.90;;;;;;5052638;28;20171;-63
2021/03/06 04:45:04;;;;;;;6.27;5.67;;;-0.10;99.90;;;;;;5052643;28;20882;-63
2021/03/06 04:47:29;;;;;;;6.70;6.10;;;-0.10;99.90;;;;;;5052510;28;20856;-63
2021/03/06 04:49:55;;;;;;;7.40;6.20;;;-0.10;99.90;;;;;;5051824;28;20445;-64
2021/03/06 04:52:21;;;;;;;7.50;6.90;;;-0.10;99.90;;;;;;5052827;28;20172;-64
2021/03/06 04:54:46;;;;;;;5.90;5.30;;;-0.10;99.90;;;;;;5052522;28;20171;-63
2021/03/06 04:57:13;;;;;;;8.07;6.80;;;-0.10;99.90;;;;;;5052448;28;20317;-63
2021/03/06 04:59:42;;;;;;;7.20;6.50;;;-0.10;99.90;;;;;;5052366;28;20304;-63
2021/03/06 05:02:08;;;;;;;6.50;5.60;;;-0.20;99.90;;;;;;5052673;28;20405;-63
2021/03/06 05:04:34;;;;;;;7.53;6.10;;;-0.20;99.90;;;;;;5052978;28;20906;-63
2021/03/06 05:06:59;;;;;;;7.47;5.70;;;-0.20;99.90;;;;;;5055878;28;20452;-64
2021/03/06 05:09:25;;;;;;;6.77;5.83;;;-0.20;99.90;;;;;;5056019;28;20183;-63
2021/03/06 05:11:51;;;;;;;6.67;6.17;;;-0.30;99.90;;;;;;5056325;28;20525;-63
2021/03/06 05:14:17;;;;;;;7.13;6.43;;;-0.20;99.90;;;;;;5056256;28;20394;-63
2021/03/06 05:16:42;;;;;;;7.43;6.23;;;-0.30;99.90;;;;;;5046855;28;20696;-64
2021/03/06 05:19:08;;;;;;;6.27;5.67;;;-0.30;99.90;;;;;;5047120;28;20195;-63
2021/03/06 05:21:35;;;;;;;7.80;6.20;;;-0.30;99.90;;;;;;5055732;28;20163;-64
2021/03/06 05:24:01;;;;;;;7.73;6.93;;;-0.30;99.90;;;;;;5056473;28;20608;-63
2021/03/06 05:26:27;;;;;;;10.83;9.83;;;-0.30;99.90;;;;;;5055870;28;20532;-63
2021/03/06 05:28:52;;;;;;;8.93;8.03;;;-0.30;99.90;;;;;;5048883;28;20521;-64
2021/03/06 05:31:18;;;;;;;7.83;6.63;;;-0.30;99.90;;;;;;5050532;28;20167;-63
2021/03/06 05:33:43;;;;;;;8.77;7.97;;;-0.30;99.90;;;;;;5037489;28;20171;-64
2021/03/06 05:36:09;;;;;;;8.00;7.00;;;-0.30;99.90;;;;;;5055438;28;20182;-63
2021/03/06 05:38:34;;;;;;;7.20;5.77;;;-0.40;99.90;;;;;;5055484;28;20678;-63
2021/03/06 05:41:00;;;;;;;7.13;6.40;;;-0.30;99.90;;;;;;5055500;28;20292;-63
2021/03/06 05:43:26;;;;;;;7.17;6.47;;;-0.40;99.90;;;;;;5055752;28;20164;-64
2021/03/06 05:45:52;;;;;;;6.80;6.10;;;-0.40;99.90;;;;;;5055637;28;20408;-64
2021/03/06 05:48:18;;;;;;;6.30;5.70;;;-0.30;99.90;;;;;;5055194;28;20680;-64
2021/03/06 05:50:45;;;;;;;6.80;6.17;;;-0.40;99.90;;;;;;5054923;28;20148;-63
2021/03/06 05:53:15;;;;;;;7.87;7.03;;;-0.40;99.90;;;;;;5055368;28;20397;-64
2021/03/06 05:55:49;;;;;;;7.27;6.60;;;-0.30;99.90;;;;;;5055645;28;20382;-64
2021/03/06 05:58:17;;;;;;;7.93;5.90;;;-0.50;99.90;;;;;;5055443;28;20505;-64
2021/03/06 06:00:44;;;;;;;9.63;6.50;;;-0.50;99.90;;;;;;5055463;28;20397;-64
2021/03/06 06:03:10;;;;;;;7.13;6.43;;;-0.50;99.90;;;;;;5055427;28;20727;-64
2021/03/06 06:05:36;;;;;;;6.87;6.23;;;-0.50;99.90;;;;;;5057387;28;20848;-64
2021/03/06 06:08:03;;;;;;;7.53;6.73;;;-0.50;99.90;;;;;;5054922;28;20560;-62
2021/03/06 06:10:30;;;;;;;8.97;6.37;;;-0.50;99.90;;;;;;5035939;28;20167;-60
2021/03/06 06:12:57;;;;;;;7.00;6.37;;;-0.50;99.90;;;;;;5055237;28;20401;-62
2021/03/06 06:15:23;;;;;;;7.10;6.50;;;-0.60;99.90;;;;;;5053999;28;20402;-62
2021/03/06 06:17:49;;;;;;;7.20;6.60;;;-0.50;99.90;;;;;;5054416;28;20905;-63
2021/03/06 06:20:18;;;;;;;7.57;6.97;;;-0.50;99.90;;;;;;5055113;28;20167;-63
2021/03/06 06:22:45;;;;;;;8.80;6.77;;;-0.50;99.90;;;;;;5053500;28;20167;-63
2021/03/06 06:25:29;;;;;;;7.80;7.00;;;-0.50;99.90;;;;;;5054737;28;20893;-63
2021/03/06 06:28:02;;;;;;;8.23;7.27;;;-0.50;99.90;;;;;;5053990;28;20440;-64
2021/03/06 06:30:28;;;;;;;10.60;8.47;;;-0.50;99.90;;;;;;5054310;28;20914;-63
2021/03/06 06:32:54;;;;;;;10.27;8.80;;;-0.50;99.90;;;;;;5054499;28;20451;-63
2021/03/06 06:35:20;;;;;;;9.73;8.37;;;-0.60;99.90;;;;;;5053220;28;20780;-63
2021/03/06 06:38:06;;;;;;;8.67;7.70;;;-0.50;99.90;;;;;;5054472;28;20651;-63
2021/03/06 06:40:37;;;;;;;10.57;9.50;;;-0.40;99.90;;;;;;5053109;28;20413;-63
2021/03/06 06:43:24;;;;;;;10.80;8.33;;;-0.30;99.90;;;;;;5054678;28;20389;-61
2021/03/06 06:45:49;;;;;;;8.23;6.97;;;-0.20;99.90;;;;;;5054124;28;20429;-63
2021/03/06 06:48:15;;;;;;;9.13;7.13;;;-0.30;99.90;;;;;;5055350;28;20973;-63
2021/03/06 06:50:41;;;;;;;9.30;7.60;;;-0.30;99.90;;;;;;5053212;28;20179;-64
2021/03/06 06:53:22;;;;;;;9.37;7.13;;;-0.30;99.90;;;;;;5054063;28;20159;-63
2021/03/06 06:55:47;;;;;;;7.77;7.03;;;-0.20;99.90;;;;;;5053989;28;20428;-63
2021/03/06 06:58:13;;;;;;;7.90;7.13;;;-0.20;99.90;;;;;;5054243;28;20453;-63
2021/03/06 07:00:39;;;;;;;7.43;6.60;;;-0.20;99.90;;;;;;5054043;28;20171;-63
2021/03/06 07:03:05;;;;;;;8.37;7.50;;;-0.20;99.90;;;;;;5053923;28;20163;-63
2021/03/06 07:05:38;;;;;;;6.53;5.93;;;-0.10;99.90;;;;;;5053621;28;20577;-64
2021/03/06 07:08:21;;;;;;;7.60;7.00;;;0.00;99.90;;;;;;5053791;28;20493;-63
2021/03/06 07:10:47;;;;;;;8.23;6.67;;;0.00;99.90;;;;;;5053720;28;20396;-63
2021/03/06 07:13:14;;;;;;;8.10;7.40;;;0.10;99.90;;;;;;5053759;28;20398;-64
2021/03/06 07:15:41;;;;;;;8.00;7.20;;;0.20;99.90;;;;;;5053596;28;20179;-63
2021/03/06 07:18:15;;;;;;;7.73;6.30;;;0.20;99.90;;;;;;5034635;28;20539;-64
2021/03/06 07:20:41;;;;;;;7.13;6.17;;;0.40;99.90;;;;;;5053612;28;20386;-63
2021/03/06 07:23:15;;;;;;;8.93;7.53;;;0.60;99.90;;;;;;5053539;28;20414;-64
2021/03/06 07:25:40;;;;;;;7.27;6.57;;;0.80;99.90;;;;;;5053485;28;20414;-64
2021/03/06 07:28:07;;;;;;;7.60;7.00;;;0.90;99.90;;;;;;5053185;28;20457;-64
2021/03/06 07:30:33;;;;;;;7.17;6.57;;;1.00;99.90;;;;;;5053478;28;20243;-64
2021/03/06 07:33:03;;;;;;;9.00;6.63;;;1.10;99.90;;;;;;5053235;28;20539;-64
2021/03/06 07:35:33;;;;;;;7.83;7.03;;;1.30;99.90;;;;;;5053661;28;20403;-63
2021/03/06 07:38:00;;;;;;;8.30;6.40;;;1.30;99.90;;;;;;5053575;28;20428;-64
2021/03/06 07:40:30;;;;;;;7.93;6.70;;;1.40;99.90;;;;;;5052149;28;20454;-64
2021/03/06 07:43:07;;;;;;;7.30;6.70;;;1.50;99.90;;;;;;5035385;28;20502;-64
2021/03/06 07:45:35;;;;;;;9.63;7.50;;;1.60;99.90;;;;;;5053298;28;20392;-64
2021/03/06 07:48:15;;;;;;;7.10;6.40;;;1.70;99.90;;;;;;5053258;28;20831;-63
2021/03/06 07:50:44;;;;;;;7.13;6.53;;;2.00;99.90;;;;;;5054038;28;20377;-64
2021/03/06 07:53:12;;;;;;;6.93;6.33;;;2.10;99.90;;;;;;5053022;28;20439;-63
2021/03/06 07:55:39;;;;;;;6.77;6.17;;;2.10;99.90;;;;;;5052530;28;20926;-62
2021/03/06 07:58:06;;;;;;;12.30;6.90;;;2.20;99.90;;;;;;5052980;28;20417;-63
2021/03/06 08:00:55;;;;;;;6.47;5.57;;;2.30;99.90;;;;;;5052782;28;20813;-63
2021/03/06 08:03:30;;;;;;;7.50;6.70;;;2.40;99.90;;;;;;5052564;28;20903;-62
2021/03/06 08:06:00;;;;;;;7.13;6.43;;;2.50;99.90;;;;;;5052820;28;20466;-62
2021/03/06 08:08:35;;;;;;;7.00;6.30;;;2.40;99.90;;;;;;5052818;28;20446;-62
2021/03/06 08:11:13;;;;;;;7.10;5.60;;;2.20;99.90;;;;;;5052795;28;20500;-62
2021/03/06 08:13:41;;;;;;;7.40;6.70;;;2.30;99.90;;;;;;5055745;28;20435;-62
2021/03/06 08:16:22;;;;;;;6.37;5.87;;;2.40;99.90;;;;;;5052925;28;20434;-63
2021/03/06 08:18:48;;;;;;;6.77;6.13;;;2.30;99.90;;;;;;5053282;28;20416;-63
2021/03/06 08:21:33;;;;;;;7.33;6.60;;;2.50;99.90;;;;;;5053099;28;20408;-63
2021/03/06 08:24:21;;;;;;;6.67;6.10;;;2.50;99.90;;;;;;5037824;28;20420;-63
2021/03/06 08:26:51;;;;;;;6.53;5.47;;;2.80;99.90;;;;;;5032628;28;20858;-63
2021/03/06 08:29:20;;;;;;;7.00;6.30;;;2.80;99.90;;;;;;5033058;28;20555;-63
2021/03/06 08:32:06;;;;;;;6.37;5.87;;;2.90;99.90;;;;;;5032980;28;20409;-63
2021/03/06 08:34:36;;;;;;;7.40;6.33;;;2.70;99.90;;;;;;5018816;28;20643;-62
2021/03/06 08:39:50;;;;;;;8.40;6.93;;;2.50;99.90;;;;;;5042887;28;20442;-63
2021/03/06 08:42:21;;;;;;;6.77;6.13;;;2.60;99.90;;;;;;5056728;28;20377;-62
2021/03/06 08:44:48;;;;;;;9.33;5.43;;;2.60;99.90;;;;;;5056880;28;20401;-63
2021/03/06 08:47:34;;;;;;;8.40;6.73;;;2.70;99.90;;;;;;5056217;28;20456;-61
2021/03/06 08:50:05;;;;;;;7.57;6.13;;;2.80;99.90;;;;;;5056146;28;20459;-63
2021/03/06 08:52:31;;;;;;;8.37;6.30;;;3.00;99.90;;;;;;5056497;28;20751;-63
2021/03/06 08:54:57;;;;;;;6.80;6.20;;;3.10;99.90;;;;;;5056320;28;20413;-63
2021/03/06 08:57:27;;;;;;;9.23;6.07;;;3.30;99.90;;;;;;5056296;28;20416;-62
2021/03/06 08:59:54;;;;;;;9.63;7.30;;;3.50;99.90;;;;;;5056575;28;20910;-63
2021/03/06 09:02:31;;;;;;;8.17;7.40;;;3.60;99.90;;;;;;5056239;28;20820;-63
2021/03/06 09:05:20;;;;;;;7.70;5.77;;;3.70;99.90;;;;;;5056378;28;20443;-62
2021/03/06 09:07:48;;;;;;;7.20;6.50;;;3.80;99.70;;;;;;5056420;28;20444;-62
2021/03/06 09:10:36;;;;;;;6.13;5.53;;;3.80;99.50;;;;;;5055927;28;20413;-63
2021/03/06 09:13:22;;;;;;;6.00;5.40;;;3.80;99.30;;;;;;5056490;28;20402;-63
2021/03/06 09:16:00;;;;;;;8.73;5.90;;;3.80;99.20;;;;;;5056283;28;20398;-62
2021/03/06 09:18:32;;;;;;;6.13;5.40;;;4.00;98.90;;;;;;5056167;28;20424;-62
2021/03/06 09:21:03;;;;;;;6.00;4.83;;;4.00;97.70;;;;;;5056879;28;20409;-62
2021/03/06 09:23:36;;;;;;;6.60;5.73;;;4.00;97.60;;;;;;5055842;28;20393;-63
2021/03/06 09:26:03;;;;;;;6.13;5.60;;;4.10;97.50;;;;;;5055633;28;20378;-63
2021/03/06 09:28:30;;;;;;;6.63;6.03;;;4.30;97.10;;;;;;5055545;28;20475;-63
2021/03/06 09:31:18;;;;;;;6.30;5.67;;;4.20;96.00;;;;;;5055731;28;20810;-63
2021/03/06 09:33:44;;;;;;;5.20;4.70;;;4.20;95.80;;;;;;5055913;28;20385;-63
2021/03/06 09:36:13;;;;;;;6.13;5.60;;;4.40;95.60;;;;;;5055573;28;20413;-63
2021/03/06 09:38:59;;;;;;;6.10;5.30;;;4.50;95.40;;;;;;5055148;28;20435;-63
2021/03/06 09:41:34;;;;;;;6.93;4.97;;;4.60;94.80;;;;;;5055398;28;20401;-62
2021/03/06 09:44:02;;;;;;;5.73;5.10;;;4.40;94.90;;;;;;5055551;28;20387;-62
2021/03/06 09:46:33;;;;;;;6.93;4.53;;;4.50;94.50;;;;;;5055547;28;20463;-64
2021/03/06 09:49:00;;;;;;;6.33;5.73;;;4.50;94.40;;;;;;5055196;28;20536;-62
2021/03/06 09:51:43;;;;;;;7.22;6.10;;;4.70;95.00;;;;;;5054245;28;20422;-62
2021/03/06 09:54:10;;;;;;;6.43;5.83;;;4.90;93.60;;;;;;5055271;28;20147;-62
2021/03/06 09:56:48;;;;;;;6.87;5.33;;;4.90;93.40;;;;;;5054901;28;20415;-62
2021/03/06 09:59:13;;;;;;;6.73;6.13;;;4.60;93.20;;;;;;5055231;28;20549;-62
2021/03/06 10:01:39;;;;;;;6.47;5.87;;;4.80;93.50;;;;;;5055243;28;20449;-63
2021/03/06 10:04:26;;;;;;;9.20;5.50;;;5.00;93.60;;;;;;5055131;28;20173;-64
2021/03/06 10:06:58;;;;;;;6.33;5.43;;;4.90;93.20;;;;;;5055550;28;20190;-63
2021/03/06 10:09:25;;;;;;;6.10;5.50;;;4.90;93.30;;;;;;5054698;28;20429;-63
2021/03/06 10:11:53;;;;;;;5.80;5.30;;;5.20;93.40;;;;;;5054735;28;20489;-63
2021/03/06 10:14:27;;;;;;;6.40;5.80;;;5.40;93.00;;;;;;5057466;28;20406;-63
2021/03/06 10:16:57;;;;;;;19.07;11.10;;;5.40;91.60;;;;;;5034877;28;20432;-63
2021/03/06 10:19:28;;;;;;;6.70;5.30;;;5.30;91.70;;;;;;5035115;28;20422;-63
2021/03/06 10:22:03;;;;;;;5.60;4.97;;;5.30;92.20;;;;;;5034812;28;20910;-63
2021/03/06 10:24:29;;;;;;;6.50;5.20;;;5.50;92.90;;;;;;5034417;28;20390;-63
2021/03/06 10:27:00;;;;;;;6.57;5.60;;;5.40;90.60;;;;;;5034279;28;20450;-63
2021/03/06 10:29:27;;;;;;;5.97;5.37;;;5.50;91.20;;;;;;5034854;28;20414;-62
2021/03/06 10:31:56;;;;;;;7.20;5.80;;;5.60;91.10;;;;;;5034879;28;20398;-64
2021/03/06 10:34:34;;;;;;;6.50;5.20;;;5.80;91.00;;;;;;5034552;28;20398;-63
2021/03/06 10:37:09;;;;;;;7.83;5.17;;;5.90;90.20;;;;;;5034475;28;20401;-63
2021/03/06 10:40:09;;;;;;;5.70;5.10;;;5.80;91.00;;;;;;5040233;28;20773;-63
2021/03/06 10:42:46;;;;;;;5.23;4.83;;;6.00;89.80;;;;;;5054325;28;20409;-64
2021/03/06 10:45:27;;;;;;;7.00;6.00;;;6.00;88.80;;;;;;5054583;28;20439;-63
2021/03/06 10:47:54;;;;;;;7.43;5.60;;;5.90;91.30;;;;;;5054168;28;20483;-64
2021/03/06 10:50:25;;;;;;;6.30;5.60;;;5.90;91.60;;;;;;5054226;28;20913;-63
2021/03/06 10:53:09;;;;;;;5.60;4.93;;;6.00;92.10;;;;;;5053899;28;20385;-64
2021/03/06 10:55:36;;;;;;;5.77;5.27;;;6.10;91.40;;;;;;5053855;28;20833;-64
2021/03/06 10:58:02;;;;;;;5.40;4.90;;;6.30;91.70;;;;;;5054064;28;20798;-63
2021/03/06 11:00:27;;;;;;;6.53;6.03;;;6.40;90.90;;;;;;5054266;28;20405;-64
2021/03/06 11:02:57;;;;;;;5.90;5.40;;;6.40;90.50;;;;;;5052841;28;20404;-64
2021/03/06 11:05:25;;;;;;;7.20;5.80;;;6.40;90.30;;;;;;5053912;28;20168;-63
2021/03/06 11:07:51;;;;;;;5.37;4.87;;;6.40;91.20;;;;;;5036030;28;20461;-64
2021/03/06 11:10:18;;;;;;;5.67;5.17;;;6.50;90.80;;;;;;5053754;28;20496;-64
2021/03/06 11:12:55;;;;;;;6.10;5.50;;;6.50;90.20;;;;;;5053782;28;20451;-64
2021/03/06 11:15:23;;;;;;;5.87;5.30;;;6.60;90.10;;;;;;5050611;28;20499;-64
2021/03/06 11:17:56;;;;;;;7.13;5.40;;;6.40;88.60;;;;;;5034287;28;20822;-65
2021/03/06 11:20:25;;;;;;;7.33;5.47;;;6.30;89.40;;;;;;5033977;28;20422;-64
2021/03/06 11:22:52;;;;;;;5.57;5.07;;;6.50;89.30;;;;;;5033668;28;20412;-64
2021/03/06 11:25:19;;;;;;;5.37;4.67;;;6.70;88.30;;;;;;5033617;28;20398;-63
2021/03/06 11:27:55;;;;;;;6.73;5.37;;;7.20;86.20;;;;;;5033138;28;20958;-64
2021/03/06 11:30:34;;;;;;;5.60;5.10;;;8.70;85.20;;;;;;5042942;28;20427;-64
2021/03/06 11:33:01;;;;;;;6.83;4.80;;;10.30;76.80;;;;;;5048509;28;20924;-64
2021/03/06 11:35:28;;;;;;;5.20;4.70;;;11.50;70.10;;;;;;5052545;28;20757;-65
2021/03/06 11:37:54;;;;;;;5.83;5.33;;;12.80;65.70;;;;;;5052980;28;20404;-64
2021/03/06 11:40:25;;;;;;;6.07;5.17;;;12.70;61.10;;;;;;5052989;28;20936;-63
2021/03/06 11:42:52;;;;;;;5.33;4.80;;;13.10;60.60;;;;;;5053296;28;20385;-64
2021/03/06 11:45:19;;;;;;;5.37;4.87;;;12.80;59.00;;;;;;5053083;28;20924;-62
2021/03/06 11:47:46;;;;;;;8.00;7.20;;;12.10;58.20;;;;;;5053106;28;20452;-63
2021/03/06 11:50:13;;;;;;;5.03;4.53;;;13.20;59.30;;;;;;5053361;28;20389;-64
2021/03/06 11:52:39;;;;;;;6.10;5.00;;;14.20;55.80;;;;;;5053271;28;20402;-63
2021/03/06 11:55:07;;;;;;;5.00;4.60;;;12.90;55.10;;;;;;5053024;28;20798;-64
2021/03/06 11:57:33;;;;;;;5.23;4.80;;;12.20;56.30;;;;;;5052765;28;20421;-64
2021/03/06 11:59:59;;;;;;;5.10;4.60;;;11.80;56.10;;;;;;5052990;28;20428;-64
2021/03/06 12:02:25;;;;;;;5.03;4.53;;;11.40;55.90;;;;;;5052971;28;20405;-64
2021/03/06 12:04:51;;;;;;;4.90;4.13;;;12.80;55.40;;;;;;5054027;28;20588;-64
2021/03/06 12:07:16;;;;;;;4.77;4.37;;;13.40;52.50;;;;;;5052814;28;20734;-64
2021/03/06 12:09:42;;;;;;;4.80;4.40;;;14.00;51.70;;;;;;5055055;28;20189;-64
2021/03/06 12:12:08;;;;;;;5.47;4.63;;;14.10;50.00;;;;;;5052736;28;20527;-63
2021/03/06 12:14:34;;;;;;;5.00;4.60;;;14.50;48.90;;;;;;5055545;28;20273;-63
2021/03/06 12:16:59;;;;;;;5.40;3.90;;;14.30;48.90;;;;;;5057022;28;20179;-64
2021/03/06 12:19:25;;;;;;;3.80;3.50;;;13.80;48.80;;;;;;5056886;28;20430;-64
2021/03/06 12:21:50;;;;;;;4.47;4.17;;;13.00;49.30;;;;;;5056751;28;20290;-64
2021/03/06 12:24:16;;;;;;;4.20;3.80;;;12.80;49.40;;;;;;5056863;28;20168;-63
2021/03/06 12:26:43;;;;;;;4.17;3.87;;;13.10;49.60;;;;;;5056700;28;20628;-63
2021/03/06 12:29:08;;;;;;;4.63;4.17;;;13.30;49.10;;;;;;5056427;28;20577;-64
2021/03/06 12:31:34;;;;;;;5.57;3.90;;;13.20;48.40;;;;;;5056807;28;20402;-63
2021/03/06 12:34:00;;;;;;;4.00;3.70;;;14.40;48.60;;;;;;5056389;28;20168;-64
2021/03/06 12:36:26;;;;;;;4.17;3.87;;;15.80;45.10;;;;;;5056747;28;20177;-64
2021/03/06 12:38:52;;;;;;;4.10;3.70;;;15.00;45.00;;;;;;5056804;28;20191;-64
2021/03/06 12:41:18;;;;;;;4.13;3.73;;;15.30;45.50;;;;;;5036472;28;20398;-63
2021/03/06 12:43:44;;;;;;;4.43;4.03;;;16.40;44.90;;;;;;5036400;28;20467;-63
2021/03/06 12:46:09;;;;;;;3.93;3.63;;;17.00;41.30;;;;;;5036671;28;20183;-63
2021/03/06 12:51:21;;;;;;;5.23;4.10;;;16.60;41.00;;;;;;5035686;28;20617;-62
2021/03/06 12:53:47;;;;;;;4.37;3.97;;;17.60;40.90;;;;;;5036618;28;20409;-63
2021/03/06 12:56:13;;;;;;;3.90;3.60;;;17.40;39.10;;;;;;5036353;28;20249;-64
2021/03/06 12:58:38;;;;;;;4.40;3.27;;;16.10;40.00;;;;;;5036743;28;20434;-63
2021/03/06 13:01:04;;;;;;;5.63;3.60;;;15.80;41.90;;;;;;5037248;28;20557;-63
2021/03/06 13:03:29;;;;;;;3.47;3.17;;;15.80;42.50;;;;;;5036194;28;20167;-62
2021/03/06 13:05:56;;;;;;;3.77;3.40;;;16.10;40.60;;;;;;5036384;28;20171;-63
2021/03/06 13:08:21;;;;;;;4.70;4.30;;;17.70;39.00;;;;;;5037118;28;20654;-63
2021/03/06 13:10:47;;;;;;;3.83;3.17;;;17.80;38.50;;;;;;5036207;28;20422;-63